ADDS METAR Data INFO
IDs: Format: Raw Decoded Include TAF

Data at: 2157 UTC 24 Feb 2018

PAFM 242156Z AUTO VRB03KT 10SM CLR M18/M21 A2976 RMK AO2 SLP093 T11831206 FZRANO
PAFM 242056Z AUTO VRB04KT 10SM CLR M18/M21 A2976 RMK AO2 SLP092 T11831206 50001 FZRANO
PAFM 241956Z AUTO VRB04KT 10SM CLR M18/M21 A2976 RMK AO2 SLP093 T11831206 FZRANO
PAFM 241856Z AUTO VRB03KT 10SM CLR M21/M22 A2976 RMK AO2 SLP092 T12061222 FZRANO
PAFM 241756Z AUTO 29006KT 10SM CLR M21/M22 A2976 RMK AO2 SNE41 SLP092 P0000 60000 T12061222 11178 21211 56004 FZRANO
PAFM 241656Z AUTO 27005KT 9SM -SN CLR M20/M22 A2976 RMK AO2 SNB01 SLP093 P0000 T12001217 FZRANO
PAFM 241556Z AUTO 28004KT 10SM CLR M20/M22 A2976 RMK AO2 SLP094 T12001217 FZRANO
PAFM 241456Z AUTO 00000KT 10SM CLR M21/M23 A2977 RMK AO2 SLP096 T12061228 56013 FZRANO
PAFM 241356Z AUTO 31003KT 10SM CLR M18/M20 A2978 RMK AO2 SLP098 T11831200 FZRANO
PAFM 241256Z AUTO 30003KT 10SM CLR M19/M21 A2979 RMK AO2 SLP103 T11891206 FZRANO
PAFM 241245Z AUTO 32003KT 10SM SCT021 M19/M21 A2979 RMK AO2 FZRANO
PAFM 241156Z AUTO 00000KT 10SM OVC021 M18/M20 A2981 RMK AO2 SLP108 60000 T11781200 11156 21178 57026 FZRANO
PAFM 240956Z AUTO 00000KT 9SM -SN OVC015 M16/M18 A2986 RMK AO2 SNB40 SLP126 P0000 T11611183 FZRANO
PAFM 240856Z AUTO 36003KT 10SM OVC017 M16/M18 A2988 RMK AO2 SNE0757 SLP134 60000 T11611183 58022 FZRANO
PAFM 240756Z AUTO 03003KT 9SM -SN OVC017 M16/M18 A2990 RMK AO2 SNB09E27B45 SLP141 P0000 T11611183 410941178 FZRANO
PAFM 240656Z AUTO 03003KT 10SM OVC019 M16/M18 A2993 RMK AO2 SLP149 T11611183 FZRANO
PAFM 240556Z AUTO 02003KT 10SM OVC021 M16/M18 A2995 RMK AO2 SNB21E49 SLP156 P0000 60000 T11611183 11156 21161 58019 FZRANO
PAFM 240456Z AUTO 05006KT 10SM OVC025 M16/M18 A2997 RMK AO2 SLP165 T11611183 FZRANO
PAFM 240356Z AUTO 04005KT 10SM OVC016 M16/M18 A3000 RMK AO2 SLP174 T11611183 FZRANO
PAFM 240351Z AUTO 04005KT 10SM OVC016 M16/M18 A3000 RMK AO2 FZRANO
PAFM 240256Z AUTO 06004KT 10SM BKN014 OVC023 M16/M18 A3004 RMK AO2 SNE25 SLP188 P0000 60000 T11611183 56019 FZRANO
PAFM 240254Z AUTO 06003KT 10SM BKN014 OVC023 M16/M18 A3004 RMK AO2 SNE25 P0000 FZRANO
PAFM 240156Z AUTO 05005KT 9SM -SN OVC023 M16/M18 A3007 RMK AO2 SLP197 P0000 T11561183 FZRANO
PAFM 240056Z AUTO 08005KT 9SM -SN OVC020 M16/M18 A3010 RMK AO2 SLP208 P0000 T11561183 FZRANO
PAFM 232356Z AUTO 12004KT 9SM -SN FEW015 SCT020 OVC027 M16/M19 A3014 RMK AO2 SNE00B48 SLP220 P0000 60000 T11561189 11156 21178 58019 FZRANO
PAFM 232256Z AUTO 13007KT 9SM -SN OVC022 M16/M19 A3016 RMK AO2 SLP228 P0000 T11611189 FZRANO
PAFM 232156Z AUTO 10007KT 9SM -SN OVC022 M17/M20 A3018 RMK AO2 SNE02B32 SLP235 P0000 T11721200 FZRANO
PAFM 232056Z AUTO 10004KT 9SM -SN OVC024 M17/M19 A3019 RMK AO2 SLP238 P0000 60000 T11671194 53008 FZRANO
PAFM 231956Z AUTO 11004KT 9SM -SN OVC026 M17/M20 A3018 RMK AO2 SLP233 P0000 T11721200 FZRANO
PAFM 231856Z AUTO 10004KT 9SM -SN OVC024 M18/M20 A3017 RMK AO2 SLP231 P0000 T11781200 FZRANO
PAFM 231656Z AUTO 17004KT 9SM -SN OVC022 M18/M20 A3016 RMK AO2 SLP229 P0000 T11781200 FZRANO
PAFM 231556Z AUTO 15006KT 9SM -SN BKN022 OVC027 M17/M19 A3016 RMK AO2 SLP226 P0000 T11671189 FZRANO
PAFM 231535Z AUTO 15005KT 9SM -SN OVC027 M16/M18 A3015 RMK AO2 P0000 FZRANO
PAFM 231456Z AUTO 18005KT 9SM -SN SCT021 OVC033 M16/M18 A3014 RMK AO2 SLP221 P0000 60000 T11561178 50011 FZRANO
PAFM 231356Z AUTO 19006KT 9SM -SN BKN019 OVC038 M16/M18 A3013 RMK AO2 SLP217 P0000 T11561178 FZRANO
PAFM 231256Z AUTO 24005KT 9SM -SN BKN042 M13/M14 A3011 RMK AO2 SLP210 P0000 T11281144 FZRANO
PAFM 231243Z AUTO 00000KT 9SM -SN SCT017 BKN042 M12/M14 A3010 RMK AO2 P0000 FZRANO
PAFM 231156Z AUTO 25004KT 3SM -SN BR OVC022 M12/M14 A3008 RMK AO2 SLP201 P0000 60000 T11221139 11067 21122 51020 FZRANO
PAFM 231141Z AUTO 26005KT 3SM -SN BR OVC023 M12/M14 A3008 RMK AO2 P0000 FZRANO
PAFM 231126Z AUTO 27006KT 2 1/2SM -SN BR OVC020 M12/M13 A3007 RMK AO2 P0000 FZRANO
PAFM 231056Z AUTO 22007KT 3SM -SN BR SCT011 OVC018 M11/M13 A3005 RMK AO2 SLP191 P0000 T11111128 FZRANO
PAFM 231051Z AUTO 22005KT 2 1/2SM -SN BR BKN011 OVC018 M11/M13 A3005 RMK AO2 VIS 1 1/2V4 P0000 FZRANO
PAFM 231029Z AUTO 22003KT 1 3/4SM -SN BR OVC011 M11/M12 A3004 RMK AO2 CIG 010V013 P0000 FZRANO
PAFM 231022Z AUTO 22004KT 2SM -SN BR OVC011 M11/M12 A3004 RMK AO2 P0000 FZRANO
PAFM 231004Z AUTO 20003KT 1 1/4SM -SN BR OVC011 M11/M12 A3003 RMK AO2 P0000 FZRANO